createdAt,value
2023-03-08T00:02:01.189Z,51.20
2023-03-08T00:04:46.980Z,51.40
2023-03-08T00:07:32.754Z,51.39
2023-03-08T00:10:18.712Z,51.43
2023-03-08T00:13:04.586Z,51.53
2023-03-08T00:15:51.168Z,51.43
2023-03-08T00:18:37.543Z,50.88
2023-03-08T00:21:23.503Z,51.17
2023-03-08T00:24:09.220Z,50.98
2023-03-08T00:26:54.915Z,51.62
2023-03-08T00:29:40.647Z,51.21
2023-03-08T00:32:27.231Z,51.32
2023-03-08T00:35:13.226Z,51.44
2023-03-08T00:37:59.016Z,51.19
2023-03-08T00:40:44.754Z,51.54
2023-03-08T00:43:31.445Z,51.69
2023-03-08T00:46:18.920Z,51.58
2023-03-08T00:49:05.244Z,51.66
2023-03-08T00:51:51.297Z,51.81
2023-03-08T00:54:37.560Z,51.91
2023-03-08T00:57:24.854Z,51.71
2023-03-08T01:00:12.941Z,51.97
2023-03-08T01:02:59.291Z,51.96
2023-03-08T01:05:49.630Z,51.96
2023-03-08T01:08:36.427Z,51.93
2023-03-08T01:11:27.896Z,52.24
2023-03-08T01:14:14.691Z,52.21
2023-03-08T01:17:00.678Z,52.40
2023-03-08T01:19:46.822Z,52.04
2023-03-08T01:22:33.038Z,52.28
2023-03-08T01:25:20.381Z,52.35
2023-03-08T01:28:07.425Z,52.36
2023-03-08T01:30:53.901Z,52.11
2023-03-08T01:33:40.501Z,52.32
2023-03-08T01:36:28.257Z,52.26
2023-03-08T01:39:15.912Z,52.48
2023-03-08T01:42:07.448Z,52.75
2023-03-08T01:45:06.174Z,52.62
2023-03-08T01:47:53.412Z,52.50
2023-03-08T01:50:46.616Z,52.62
2023-03-08T01:53:34.960Z,52.69
2023-03-08T01:56:22.621Z,52.49
2023-03-08T01:59:09.467Z,52.66
2023-03-08T02:01:55.833Z,52.37
2023-03-08T02:04:42.744Z,52.56
2023-03-08T02:07:32.317Z,52.46
2023-03-08T02:10:21.459Z,52.85
2023-03-08T02:13:08.009Z,52.78
2023-03-08T02:15:58.822Z,53.24
2023-03-08T02:19:00.849Z,53.43
2023-03-08T02:21:46.767Z,53.13
2023-03-08T02:24:33.549Z,52.99
2023-03-08T02:27:25.890Z,53.14
2023-03-08T02:30:16.202Z,53.04
2023-03-08T02:33:02.297Z,52.85
2023-03-08T02:35:48.740Z,52.84
2023-03-08T02:38:35.838Z,52.66
2023-03-08T02:41:21.966Z,52.91
2023-03-08T02:44:07.689Z,53.45
2023-03-08T02:46:55.255Z,53.31
2023-03-08T02:49:42.283Z,53.21
2023-03-08T02:52:31.627Z,52.98
2023-03-08T02:55:19.587Z,53.42
2023-03-08T02:58:07.398Z,53.04
2023-03-08T03:00:53.707Z,53.27
2023-03-08T03:03:40.913Z,53.37
2023-03-08T03:06:27.459Z,53.35
2023-03-08T03:09:16.556Z,53.98
2023-03-08T03:12:06.537Z,53.77
2023-03-08T03:14:56.642Z,53.67
2023-03-08T03:17:43.515Z,53.84
2023-03-08T03:20:30.471Z,53.89
2023-03-08T03:23:17.182Z,53.83
2023-03-08T03:26:12.541Z,53.92
2023-03-08T03:28:59.456Z,53.96
2023-03-08T03:31:52.088Z,53.62
2023-03-08T03:34:40.274Z,53.64
2023-03-08T03:37:26.550Z,54.04
2023-03-08T03:40:14.490Z,54.12
2023-03-08T03:43:03.395Z,53.72
2023-03-08T03:45:59.361Z,54.30
2023-03-08T03:48:48.725Z,54.16
2023-03-08T03:51:37.804Z,54.08
2023-03-08T03:54:49.467Z,53.70
2023-03-08T03:57:35.435Z,54.16
2023-03-08T04:00:22.658Z,54.12
2023-03-08T04:03:23.918Z,54.00
2023-03-08T04:06:24.259Z,53.82
2023-03-08T04:09:15.333Z,53.99
2023-03-08T04:12:05.780Z,53.99
2023-03-08T04:14:57.252Z,53.80
2023-03-08T04:17:50.796Z,55.55
2023-03-08T04:20:41.395Z,54.08
2023-03-08T04:23:33.344Z,53.70
2023-03-08T04:26:23.537Z,54.46
2023-03-08T04:29:09.600Z,54.23
2023-03-08T04:32:00.475Z,53.92
2023-03-08T04:34:57.117Z,54.24
2023-03-08T04:37:49.740Z,54.29
2023-03-08T04:41:05.561Z,54.15
2023-03-08T04:44:05.517Z,54.01
2023-03-08T04:46:57.438Z,54.07
2023-03-08T04:49:54.751Z,54.10
2023-03-08T04:52:41.340Z,54.01
2023-03-08T04:55:26.977Z,54.41
2023-03-08T04:58:23.906Z,54.39
2023-03-08T05:01:21.035Z,54.13
2023-03-08T05:04:07.096Z,54.87
2023-03-08T05:06:57.716Z,54.69
2023-03-08T05:09:46.875Z,54.53
2023-03-08T05:12:33.052Z,54.57
2023-03-08T05:15:20.225Z,54.74
2023-03-08T05:18:06.198Z,54.23
2023-03-08T05:21:08.373Z,54.39
2023-03-08T05:23:55.200Z,54.71
2023-03-08T05:26:43.556Z,54.64
2023-03-08T05:29:34.998Z,54.56
2023-03-08T05:32:44.105Z,54.32
2023-03-08T05:35:31.221Z,54.52
2023-03-08T05:39:27.435Z,54.89
2023-03-08T05:42:20.513Z,54.58
2023-03-08T05:45:07.568Z,54.85
2023-03-08T05:47:56.687Z,54.32
2023-03-08T05:50:43.473Z,54.72
2023-03-08T05:53:29.719Z,54.80
2023-03-08T05:56:18.147Z,54.73
2023-03-08T05:59:12.343Z,54.49
2023-03-08T06:01:58.446Z,54.46
2023-03-08T06:04:52.925Z,54.42
2023-03-08T06:07:43.768Z,54.78
2023-03-08T06:10:32.054Z,54.84
2023-03-08T06:13:22.011Z,54.72
2023-03-08T06:16:08.357Z,54.65
2023-03-08T06:18:54.486Z,54.53
2023-03-08T06:21:40.642Z,54.42
2023-03-08T06:24:26.554Z,54.27
2023-03-08T06:27:13.449Z,54.27
2023-03-08T06:30:01.712Z,54.26
2023-03-08T06:32:49.893Z,54.51
2023-03-08T06:35:35.994Z,54.89
2023-03-08T06:38:24.650Z,55.07
2023-03-08T06:41:11.366Z,55.37
2023-03-08T06:43:57.362Z,54.96
2023-03-08T06:46:43.813Z,55.07
2023-03-08T06:49:29.698Z,55.10
2023-03-08T06:52:15.489Z,54.94
2023-03-08T06:55:01.769Z,54.71
2023-03-08T06:57:47.594Z,54.60
2023-03-08T07:00:34.292Z,54.72
2023-03-08T07:03:20.549Z,54.59
2023-03-08T07:06:09.000Z,54.58
2023-03-08T07:08:54.965Z,54.57
2023-03-08T07:11:41.117Z,54.52
2023-03-08T07:14:26.738Z,54.52
2023-03-08T07:17:12.489Z,54.72
2023-03-08T07:19:58.148Z,54.21
2023-03-08T07:22:44.990Z,54.52
2023-03-08T07:25:30.951Z,54.38
2023-03-08T07:28:16.925Z,54.41
2023-03-08T07:31:02.884Z,54.25
2023-03-08T07:33:48.874Z,54.59
2023-03-08T07:36:34.483Z,54.22
2023-03-08T07:39:20.145Z,54.26
2023-03-08T07:42:05.928Z,53.95
2023-03-08T07:44:51.780Z,53.75
2023-03-08T07:47:37.706Z,54.09
2023-03-08T07:50:23.739Z,53.73
2023-03-08T07:53:09.524Z,53.68
2023-03-08T07:55:57.771Z,53.73
2023-03-08T07:58:43.510Z,53.36
2023-03-08T08:01:29.538Z,54.11
2023-03-08T08:04:15.383Z,53.28
2023-03-08T08:07:01.405Z,54.10
2023-03-08T08:09:48.025Z,53.94
2023-03-08T08:12:34.224Z,53.77
2023-03-08T08:15:21.019Z,53.49
2023-03-08T08:18:07.047Z,53.49
2023-03-08T08:21:15.603Z,53.07
2023-03-08T08:24:02.176Z,53.42
2023-03-08T08:26:47.994Z,53.82
2023-03-08T08:29:33.862Z,53.24
2023-03-08T08:32:22.745Z,53.52
2023-03-08T08:35:08.712Z,52.85
2023-03-08T08:37:54.735Z,53.09
2023-03-08T08:40:40.317Z,52.66
2023-03-08T08:43:26.050Z,53.05
2023-03-08T08:46:13.300Z,52.80
2023-03-08T08:48:59.165Z,53.42
2023-03-08T08:51:47.259Z,53.30
2023-03-08T08:54:34.302Z,53.55
2023-03-08T08:57:20.284Z,53.22
2023-03-08T09:00:10.098Z,53.59
2023-03-08T09:02:56.028Z,53.11
2023-03-08T09:05:44.343Z,53.06
2023-03-08T09:08:30.189Z,53.33
2023-03-08T09:11:16.095Z,53.28
2023-03-08T09:14:02.580Z,53.11
2023-03-08T09:16:48.442Z,53.21
2023-03-08T09:19:36.448Z,53.22
2023-03-08T09:22:22.237Z,53.44
2023-03-08T09:25:10.317Z,53.17
2023-03-08T09:27:56.323Z,53.33
2023-03-08T09:30:42.071Z,53.07
2023-03-08T09:33:27.706Z,53.13
2023-03-08T09:36:14.808Z,52.84
2023-03-08T09:39:00.831Z,52.97
2023-03-08T09:41:48.934Z,53.19
2023-03-08T09:44:59.331Z,53.11
2023-03-08T09:48:12.833Z,53.37
2023-03-08T09:51:04.008Z,53.22
2023-03-08T09:53:54.861Z,53.02
2023-03-08T09:56:49.170Z,53.17
2023-03-08T09:59:58.818Z,53.29
2023-03-08T10:03:09.438Z,53.16
2023-03-08T10:06:20.584Z,53.07
2023-03-08T10:09:33.116Z,53.13
2023-03-08T10:12:51.239Z,52.76
2023-03-08T10:15:42.427Z,52.38
2023-03-08T10:18:57.020Z,51.21
2023-03-08T10:21:44.514Z,51.54
2023-03-08T10:24:37.129Z,51.39
2023-03-08T10:27:26.411Z,51.34
2023-03-08T10:30:15.916Z,51.46
2023-03-08T10:33:07.337Z,51.36
2023-03-08T10:36:06.246Z,51.83
2023-03-08T10:39:08.386Z,51.52
2023-03-08T10:41:56.799Z,51.43
2023-03-08T10:44:52.480Z,51.50
2023-03-08T10:47:39.689Z,51.28
2023-03-08T10:50:29.049Z,51.18
2023-03-08T10:53:19.846Z,50.87
2023-03-08T10:56:47.538Z,51.07
2023-03-08T10:59:35.234Z,51.25
2023-03-08T11:02:22.981Z,51.04
2023-03-08T11:05:29.451Z,50.58
2023-03-08T11:08:24.285Z,50.96
2023-03-08T11:11:14.229Z,49.55
2023-03-08T11:14:01.607Z,50.71
2023-03-08T11:17:08.286Z,50.20
2023-03-08T11:20:00.730Z,50.29
2023-03-08T11:22:52.736Z,50.14
2023-03-08T11:25:56.489Z,50.41
2023-03-08T11:28:56.509Z,48.89
2023-03-08T11:31:50.148Z,49.32
2023-03-08T11:34:47.119Z,48.32
2023-03-08T11:37:50.862Z,47.93
2023-03-08T11:40:59.316Z,47.42
2023-03-08T11:44:07.097Z,45.84
2023-03-08T11:47:05.037Z,45.94
2023-03-08T11:49:54.081Z,46.21
2023-03-08T11:52:51.723Z,45.93
2023-03-08T11:56:10.461Z,44.97
2023-03-08T11:59:02.587Z,45.33
2023-03-08T12:02:10.410Z,41.69
2023-03-08T12:05:23.071Z,45.18
2023-03-08T12:08:08.819Z,45.61
2023-03-08T12:11:05.613Z,44.65
2023-03-08T12:13:55.745Z,44.99
2023-03-08T12:16:50.270Z,45.08
2023-03-08T12:19:42.117Z,45.46
2023-03-08T12:22:42.142Z,45.00
2023-03-08T12:25:31.302Z,45.66
2023-03-08T12:28:25.317Z,45.15
2023-03-08T12:31:26.605Z,45.45
2023-03-08T12:34:28.468Z,44.94
2023-03-08T12:37:32.993Z,44.39
2023-03-08T12:40:58.657Z,44.52
2023-03-08T12:44:36.065Z,45.08
2023-03-08T12:47:23.342Z,45.92
2023-03-08T12:50:15.030Z,45.54
2023-03-08T12:53:02.336Z,45.73
2023-03-08T12:56:04.594Z,43.96
2023-03-08T12:58:54.847Z,45.56
2023-03-08T13:02:26.984Z,45.41
2023-03-08T13:05:31.387Z,46.00
2023-03-08T13:08:27.336Z,45.80
2023-03-08T13:11:18.156Z,46.00
2023-03-08T13:14:25.088Z,45.66
2023-03-08T13:17:29.740Z,45.59
2023-03-08T13:20:25.687Z,45.99
2023-03-08T13:23:14.586Z,45.69
2023-03-08T13:26:03.405Z,45.83
2023-03-08T13:28:49.557Z,46.28
2023-03-08T13:31:37.351Z,46.72
2023-03-08T13:34:32.092Z,46.68
2023-03-08T13:37:26.264Z,46.23
2023-03-08T13:40:18.101Z,45.38
2023-03-08T13:43:08.569Z,45.61
2023-03-08T13:45:57.458Z,45.33
2023-03-08T13:48:44.611Z,44.96
2023-03-08T13:51:30.901Z,44.57
2023-03-08T13:54:29.867Z,44.51
2023-03-08T13:57:22.480Z,44.21
2023-03-08T14:00:27.216Z,44.25
2023-03-08T14:03:20.345Z,43.27
2023-03-08T14:06:19.055Z,44.29
2023-03-08T14:09:05.636Z,44.76
2023-03-08T14:12:05.293Z,43.53
2023-03-08T14:14:57.438Z,44.84
2023-03-08T14:17:43.005Z,44.59
2023-03-08T14:20:28.839Z,43.72
2023-03-08T14:23:23.661Z,42.42
2023-03-08T14:26:36.508Z,39.29
2023-03-08T14:29:30.214Z,41.54
2023-03-08T14:32:16.266Z,42.27
2023-03-08T14:35:30.138Z,37.18
2023-03-08T14:38:25.223Z,40.73
2023-03-08T14:41:15.485Z,40.65
2023-03-08T14:44:02.998Z,40.67
2023-03-08T14:46:49.058Z,41.07
2023-03-08T14:49:35.254Z,41.49
2023-03-08T14:52:21.595Z,41.78
2023-03-08T14:55:24.738Z,41.75
2023-03-08T14:58:14.100Z,42.54
2023-03-08T15:01:02.562Z,42.96
2023-03-08T15:03:48.853Z,43.06
2023-03-08T15:06:36.415Z,43.37
2023-03-08T15:09:23.044Z,43.24
2023-03-08T15:12:12.594Z,43.76
2023-03-08T15:14:58.330Z,43.58
2023-03-08T15:17:45.770Z,44.11
2023-03-08T15:20:31.762Z,44.02
2023-03-08T15:23:27.526Z,44.37
2023-03-08T15:26:24.906Z,44.39
2023-03-08T15:29:29.213Z,44.48
2023-03-08T15:32:15.221Z,44.78
2023-03-08T15:35:00.924Z,44.73
2023-03-08T15:37:47.132Z,44.88
2023-03-08T15:40:34.758Z,45.05
2023-03-08T15:43:20.579Z,45.10
2023-03-08T15:46:06.617Z,45.27
2023-03-08T15:48:52.924Z,45.30
2023-03-08T15:51:39.052Z,45.36
2023-03-08T15:54:25.274Z,45.42
2023-03-08T15:57:11.060Z,45.39
2023-03-08T15:59:56.908Z,45.31
2023-03-08T16:02:43.297Z,45.32
2023-03-08T16:05:31.133Z,45.33
2023-03-08T16:08:16.793Z,45.51
2023-03-08T16:11:06.455Z,45.36
2023-03-08T16:13:53.104Z,45.55
2023-03-08T16:16:45.614Z,45.63
2023-03-08T16:19:33.207Z,45.67
2023-03-08T16:22:19.646Z,45.75
2023-03-08T16:25:06.720Z,45.89
2023-03-08T16:27:53.377Z,45.90
2023-03-08T16:30:43.078Z,45.97
2023-03-08T16:33:29.418Z,46.16
2023-03-08T16:36:19.610Z,46.00
2023-03-08T16:39:06.717Z,45.99
2023-03-08T16:41:52.630Z,46.17
2023-03-08T16:44:39.153Z,46.18
2023-03-08T16:47:26.705Z,46.26
2023-03-08T16:50:13.831Z,46.33
2023-03-08T16:52:59.861Z,46.71
2023-03-08T16:55:46.446Z,46.59
2023-03-08T16:58:32.488Z,46.49
2023-03-08T17:01:19.667Z,46.50
2023-03-08T17:04:05.526Z,46.51
2023-03-08T17:06:51.538Z,46.73
2023-03-08T17:09:38.292Z,46.56
2023-03-08T17:12:24.422Z,46.66
2023-03-08T17:15:10.996Z,46.49
2023-03-08T17:17:57.235Z,46.74
2023-03-08T17:20:43.476Z,46.66
2023-03-08T17:23:29.120Z,46.86
2023-03-08T17:26:16.022Z,46.84
2023-03-08T17:29:18.204Z,46.91
2023-03-08T17:32:06.127Z,46.86
2023-03-08T17:34:52.141Z,46.98
2023-03-08T17:37:41.954Z,47.14
2023-03-08T17:40:29.480Z,46.63
2023-03-08T17:43:20.095Z,46.80
2023-03-08T17:46:17.515Z,46.90
2023-03-08T17:49:03.500Z,46.89
2023-03-08T17:51:50.074Z,47.07
2023-03-08T17:59:21.940Z,47.07
2023-03-08T18:02:10.331Z,47.02
2023-03-08T18:09:41.924Z,46.99
2023-03-08T18:12:28.780Z,47.29
2023-03-08T18:20:00.598Z,47.05
2023-03-08T18:22:47.560Z,47.19
2023-03-08T18:26:52.373Z,47.29
2023-03-08T18:29:38.449Z,47.48
2023-03-08T18:32:24.567Z,47.57
2023-03-08T18:39:38.820Z,47.50
2023-03-08T18:42:25.550Z,47.46
2023-03-08T18:52:11.019Z,47.64
2023-03-08T18:56:40.138Z,47.49
2023-03-08T19:01:11.384Z,47.46
2023-03-08T19:05:41.136Z,47.49
2023-03-08T19:09:33.312Z,47.40
2023-03-08T19:12:19.617Z,47.84
2023-03-08T19:15:09.641Z,47.52
2023-03-08T19:17:56.635Z,47.80
2023-03-08T19:20:43.406Z,47.71
2023-03-08T19:23:29.539Z,48.00
2023-03-08T19:26:36.783Z,47.81
2023-03-08T19:29:22.730Z,47.89
2023-03-08T19:32:08.966Z,47.70
2023-03-08T19:34:55.229Z,47.52
2023-03-08T19:37:42.822Z,48.21
2023-03-08T19:40:28.888Z,48.14
2023-03-08T19:43:14.767Z,47.92
2023-03-08T19:46:06.067Z,47.83
2023-03-08T19:48:51.891Z,48.02
2023-03-08T19:51:38.349Z,47.81
2023-03-08T19:54:25.913Z,48.21
2023-03-08T19:57:12.000Z,48.31
2023-03-08T19:59:59.623Z,48.01
2023-03-08T20:02:46.032Z,48.24
2023-03-08T20:05:37.729Z,48.31
2023-03-08T20:08:24.700Z,48.06
2023-03-08T20:11:11.621Z,48.08
2023-03-08T20:13:58.329Z,48.06
2023-03-08T20:16:44.902Z,48.04
2023-03-08T20:19:34.088Z,48.39
2023-03-08T20:22:20.260Z,48.88
2023-03-08T20:25:06.882Z,48.19
2023-03-08T20:27:53.116Z,48.19
2023-03-08T20:30:42.116Z,48.41
2023-03-08T20:33:28.579Z,48.67
2023-03-08T20:36:15.893Z,48.27
2023-03-08T20:39:02.642Z,48.53
2023-03-08T20:41:49.688Z,49.05
2023-03-08T20:44:36.283Z,48.60
2023-03-08T20:47:23.077Z,49.13
2023-03-08T20:50:10.431Z,49.12
2023-03-08T20:52:57.383Z,49.00
2023-03-08T20:55:43.843Z,49.25
2023-03-08T20:58:30.455Z,49.00
2023-03-08T21:01:20.513Z,49.18
2023-03-08T21:04:07.258Z,49.12
2023-03-08T21:06:53.757Z,48.91
2023-03-08T21:09:40.040Z,48.76
2023-03-08T21:12:27.388Z,49.25
2023-03-08T21:15:13.462Z,49.19
2023-03-08T21:18:01.043Z,49.65
2023-03-08T21:20:48.835Z,49.81
2023-03-08T21:23:34.823Z,49.34
2023-03-08T21:26:23.794Z,49.55
2023-03-08T21:29:12.988Z,49.38
2023-03-08T21:31:59.545Z,49.59
2023-03-08T21:34:45.628Z,49.67
2023-03-08T21:37:31.581Z,49.36
2023-03-08T21:40:17.648Z,49.37
2023-03-08T21:43:03.674Z,50.10
2023-03-08T21:45:49.568Z,49.57
2023-03-08T21:48:35.498Z,49.43
2023-03-08T21:51:21.529Z,49.59
2023-03-08T21:54:07.655Z,49.48
2023-03-08T21:56:53.998Z,49.97
2023-03-08T21:59:39.996Z,49.46
2023-03-08T22:02:26.063Z,49.65
2023-03-08T22:05:13.618Z,49.78
2023-03-08T22:07:59.497Z,49.86
2023-03-08T22:10:45.188Z,49.72
2023-03-08T22:13:31.097Z,49.93
2023-03-08T22:16:16.985Z,49.21
2023-03-08T22:19:04.184Z,49.61
2023-03-08T22:21:50.324Z,50.07
2023-03-08T22:24:41.628Z,50.21
2023-03-08T22:27:28.282Z,49.74
2023-03-08T22:30:15.365Z,50.17
2023-03-08T22:33:01.361Z,49.69
2023-03-08T22:35:48.854Z,49.95
2023-03-08T22:38:35.930Z,50.17
2023-03-08T22:41:25.156Z,50.21
2023-03-08T22:44:15.200Z,49.97
2023-03-08T22:47:01.159Z,49.84
2023-03-08T22:50:01.240Z,50.05
2023-03-08T22:52:47.399Z,49.89
2023-03-08T22:55:33.749Z,50.31
2023-03-08T22:58:19.912Z,49.90
2023-03-08T23:01:13.295Z,50.59
2023-03-08T23:03:59.787Z,50.48
2023-03-08T23:06:45.997Z,50.34
2023-03-08T23:09:32.121Z,50.38
2023-03-08T23:12:18.253Z,50.68
2023-03-08T23:15:04.733Z,50.42
2023-03-08T23:17:51.268Z,50.80
2023-03-08T23:20:39.152Z,50.67
2023-03-08T23:23:25.228Z,50.52
2023-03-08T23:26:18.034Z,50.63
2023-03-08T23:29:05.160Z,50.73
2023-03-08T23:31:51.348Z,50.76
2023-03-08T23:34:36.963Z,50.72
2023-03-08T23:37:22.747Z,51.11
2023-03-08T23:40:11.626Z,50.87
2023-03-08T23:42:57.557Z,50.59
2023-03-08T23:45:43.383Z,51.21
2023-03-08T23:48:29.284Z,51.29
2023-03-08T23:51:18.113Z,51.22
2023-03-08T23:54:03.922Z,51.52
2023-03-08T23:56:49.984Z,51.18
2023-03-08T23:59:35.630Z,51.11
